Hang Nadim, Indonesia

9:05 PM WIB on September 21, 2014 (GMT +0700)
Ocean Park | Change Station
CLOSE
Current Station
Personal Weather Station
Location: Singapore, Siglap
Elevation: 66 ft
Nearby Weather Stations

Elev 66 ft 1.31 °N, 103.92 °E | Updated 3 minutes ago

Haze
Haze
83.7 °F
Feels Like 95 °F
N
0.0
Wind Variable Wind from West
Gusts 0.0 mph

Today
High -- | Low -- °F
--% Chance of Precip.
Yesterday
High -- | Low -- °F
Precip. -- in
5:53 AM 6:00 PM
Waning Crescent, 7% visible
Pressure 29.89 in
Visibility 2.5 miles
Clouds Few 2000 ft
Mostly Cloudy 30000 ft
Heat Index 95 °F
Dew Point 78 °F
Humidity 84%
Rainfall 0.16 in
Snow Depth Not available.
UV 0 out of 12
Pollen Not available.
Air Quality Not available.
Flu Activity Not available.
METAR WSSS 211400Z VRB02KT 4000 HZ FEW020 BKN300 28/23 Q1012 NOSIG

More Conditions Fewer Conditions

Pressure 29.89 in
Visibility 2.5 miles
Clouds Few 2000 ft
Mostly Cloudy 30000 ft
Heat Index 95 °F
Dew Point 78 °F
Humidity 84%
Rainfall 0.16 in
Snow Depth Not available.
UV 0 out of 12
Pollen Not available.
Air Quality Not available.
Flu Activity Not available.
METAR WSSS 211400Z VRB02KT 4000 HZ FEW020 BKN300 28/23 Q1012 NOSIG

More Conditions Fewer Conditions

10-Day Weather Forecast

Almanac

Astronomy

Sep. 21, 2014 Rise Set
Actual Time 5:53 AM WIB 6:00 PM WIB
Civil Twilight 5:32 AM WIB 6:20 PM WIB
Nautical Twilight 5:08 AM WIB 6:44 PM WIB
Astronomical Twilight 4:44 AM WIB 7:08 PM WIB
Moon 3:29 AM WIB 3:52 PM WIB
Length of Visible Light 12h 47m
Length of Day
12h 06m
Tomorrow will be 0m 4s shorter.
Waning Crescent, 7% of the Moon is Illuminated
Today
Waning Crescent
Sep 24
New
Oct 1
First Quarter
Oct 8
Full
Oct 15
Last Quarter

Yesterday's Extremes

Country Highs Country Lows

Community

WunderPhotos

Upload Photos

1,755,147 photos uploaded!

Nearby

Snow Depth

Not available.

Earthquake Activity

City Distance Mag. Time & Date
No recent earthquake activity has been reported nearby.
Minimum magnitude displayed is 2.5.

Coastal Water Temperatures

Place Temperature
No Stations Reporting

Nearby Weather Stations